createdAt,value
2016-04-25T00:00:30.684Z,38.29
2016-04-25T00:01:30.656Z,38.29
2016-04-25T00:02:30.643Z,38.29
2016-04-25T00:03:30.629Z,38.2
2016-04-25T00:04:30.601Z,38.29
2016-04-25T00:05:30.839Z,38.29
2016-04-25T00:06:30.575Z,38.2
2016-04-25T00:07:30.546Z,38.29
2016-04-25T00:08:30.534Z,38.2
2016-04-25T00:09:30.520Z,38.29
2016-04-25T00:10:30.493Z,38.2
2016-04-25T00:11:30.480Z,38.29
2016-04-25T00:12:31.060Z,38.39
2016-04-25T00:13:30.875Z,38.29
2016-04-25T00:14:30.409Z,38.2
2016-04-25T00:15:30.396Z,38.39
2016-04-25T00:16:30.368Z,38.29
2016-04-25T00:17:30.355Z,38.39
2016-04-25T00:18:30.326Z,38.29
2016-04-25T00:19:30.313Z,38.59
2016-04-25T00:20:30.300Z,38.29
2016-04-25T00:21:30.288Z,38.49
2016-04-25T00:22:30.264Z,38.49
2016-04-25T00:23:30.236Z,38.78
2016-04-25T00:24:30.223Z,38.68
2016-04-25T00:25:30.195Z,38.2
2016-04-25T00:26:30.181Z,38.29
2016-04-25T00:27:30.465Z,38.59
2016-04-25T00:28:30.140Z,38.49
2016-04-25T00:29:30.111Z,38.59
2016-04-25T00:30:30.099Z,38.59
2016-04-25T00:31:30.070Z,38.68
2016-04-25T00:32:30.073Z,38.49
2016-04-25T00:33:30.045Z,38.68
2016-04-25T00:34:30.016Z,38.39
2016-04-25T00:35:30.003Z,38.59
2016-04-25T00:36:29.974Z,38.68
2016-04-25T00:37:29.962Z,38.78
2016-04-25T00:38:29.964Z,38.68
2016-04-25T00:39:29.920Z,38.78
2016-04-25T00:40:29.907Z,38.78
2016-04-25T00:41:29.894Z,38.78
2016-04-25T00:42:30.505Z,38.87
2016-04-25T00:43:29.837Z,38.96
2016-04-25T00:44:29.839Z,39.16
2016-04-25T00:45:29.811Z,39.06
2016-04-25T00:46:29.782Z,39.26
2016-04-25T00:47:29.770Z,38.96
2016-04-25T00:48:29.741Z,38.78
2016-04-25T00:49:29.728Z,38.87
2016-04-25T00:50:29.715Z,39.06
2016-04-25T00:51:29.687Z,39.06
2016-04-25T00:52:29.673Z,39.16
2016-04-25T00:53:29.646Z,38.87
2016-04-25T00:54:29.632Z,38.78
2016-04-25T00:55:29.604Z,39.06
2016-04-25T00:56:29.590Z,38.87
2016-04-25T00:57:29.625Z,38.78
2016-04-25T00:58:29.565Z,38.78
2016-04-25T00:59:29.552Z,39.16
2016-04-25T01:00:29.523Z,38.59
2016-04-25T01:01:29.494Z,38.68
2016-04-25T01:02:29.481Z,38.87
2016-04-25T01:03:29.470Z,39.06
2016-04-25T01:04:29.440Z,38.96
2016-04-25T01:05:29.412Z,39.06
2016-04-25T01:06:29.398Z,39.16
2016-04-25T01:07:29.386Z,38.96
2016-04-25T01:08:29.373Z,39.06
2016-04-25T01:09:29.345Z,38.96
2016-04-25T01:10:29.316Z,38.87
2016-04-25T01:11:29.302Z,39.06
2016-04-25T01:12:29.118Z,39.06
2016-04-25T01:13:29.261Z,38.87
2016-04-25T01:14:29.249Z,38.87
2016-04-25T01:15:29.219Z,38.96
2016-04-25T01:16:29.207Z,39.35
2016-04-25T01:17:29.178Z,39.64
2016-04-25T01:18:29.166Z,39.54
2016-04-25T01:19:29.137Z,39.45
2016-04-25T01:20:29.124Z,39.26
2016-04-25T01:21:29.110Z,39.54
2016-04-25T01:22:29.099Z,39.45
2016-04-25T01:23:29.069Z,39.35
2016-04-25T01:24:29.056Z,39.35
2016-04-25T01:25:29.028Z,39.35
2016-04-25T01:26:28.999Z,39.45
2016-04-25T01:27:29.002Z,39.64
2016-04-25T01:28:29.021Z,39.73
2016-04-25T01:29:28.945Z,39.73
2016-04-25T01:30:28.932Z,39.73
2016-04-25T01:31:28.920Z,39.45
2016-04-25T01:32:28.906Z,39.83
2016-04-25T01:33:28.878Z,39.73
2016-04-25T01:34:28.849Z,39.72
2016-04-25T01:35:28.836Z,39.91
2016-04-25T01:36:28.823Z,39.72
2016-04-25T01:37:28.795Z,39.64
2016-04-25T01:38:28.766Z,39.93
2016-04-25T01:39:28.753Z,39.72
2016-04-25T01:40:28.725Z,39.72
2016-04-25T01:41:28.822Z,39.91
2016-04-25T01:42:28.558Z,39.62
2016-04-25T01:43:28.669Z,39.33
2016-04-25T01:44:28.657Z,39.53
2016-04-25T01:45:28.628Z,39.43
2016-04-25T01:46:28.616Z,40.2
2016-04-25T01:47:28.603Z,39.72
2016-04-25T01:48:28.590Z,40
2016-04-25T01:49:28.858Z,40.1
2016-04-25T01:50:28.533Z,40
2016-04-25T01:51:28.535Z,39.91
2016-04-25T01:52:28.507Z,39.91
2016-04-25T01:53:28.479Z,40
2016-04-25T01:54:28.450Z,40
2016-04-25T01:55:28.437Z,40
2016-04-25T01:56:28.408Z,40
2016-04-25T01:57:28.848Z,39.81
2016-04-25T01:58:28.554Z,39.81
2016-04-25T01:59:28.354Z,39.91
2016-04-25T02:00:28.340Z,39.91
2016-04-25T02:01:28.313Z,39.81
2016-04-25T02:02:28.299Z,39.81
2016-04-25T02:03:28.302Z,39.72
2016-04-25T02:04:28.258Z,40.39
2016-04-25T02:05:28.839Z,40.29
2016-04-25T02:06:28.217Z,39.91
2016-04-25T02:07:28.188Z,39.81
2016-04-25T02:08:28.175Z,40.29
2016-04-25T02:09:28.162Z,40.29
2016-04-25T02:10:28.164Z,40.1
2016-04-25T02:11:28.121Z,40.2
2016-04-25T02:12:28.108Z,39.81
2016-04-25T02:13:28.797Z,40.2
2016-04-25T02:14:28.066Z,39.72
2016-04-25T02:15:28.053Z,39.81
2016-04-25T02:16:28.025Z,40
2016-04-25T02:17:27.996Z,40.2
2016-04-25T02:18:27.983Z,40
2016-04-25T02:19:27.969Z,40
2016-04-25T02:20:27.941Z,39.91
2016-04-25T02:21:28.117Z,39.53
2016-04-25T02:22:27.900Z,39.81
2016-04-25T02:23:27.887Z,40
2016-04-25T02:24:27.874Z,40
2016-04-25T02:25:27.845Z,40
2016-04-25T02:26:27.818Z,40
2016-04-25T02:27:28.086Z,39.91
2016-04-25T02:28:27.900Z,40.1
2016-04-25T02:29:28.919Z,40.2
2016-04-25T02:30:27.749Z,40
2016-04-25T02:31:27.737Z,40.1
2016-04-25T02:32:27.709Z,39.7
2016-04-25T02:33:27.680Z,40.2
2016-04-25T02:34:27.668Z,40.1
2016-04-25T02:35:27.654Z,39.72
2016-04-25T02:36:27.719Z,40.29
2016-04-25T02:37:27.612Z,40.08
2016-04-25T02:38:27.583Z,39.81
2016-04-25T02:39:27.570Z,40
2016-04-25T02:40:27.543Z,40.1
2016-04-25T02:41:27.529Z,40.17
2016-04-25T02:42:27.517Z,39.72
2016-04-25T02:43:27.644Z,40.08
2016-04-25T02:44:27.772Z,40.2
2016-04-25T02:45:27.447Z,40.2
2016-04-25T02:46:27.434Z,39.72
2016-04-25T02:47:27.420Z,40.2
2016-04-25T02:48:27.392Z,39.72
2016-04-25T02:49:27.364Z,39.7
2016-04-25T02:50:27.350Z,39.79
2016-04-25T02:51:27.322Z,39.91
2016-04-25T02:52:27.763Z,39.81
2016-04-25T02:53:27.296Z,40.08
2016-04-25T02:54:27.299Z,39.89
2016-04-25T02:55:27.254Z,40.17
2016-04-25T02:56:27.242Z,40.27
2016-04-25T02:57:27.229Z,40.2
2016-04-25T02:58:27.404Z,40.17
2016-04-25T02:59:27.172Z,40.17
2016-04-25T03:00:27.799Z,40.08
2016-04-25T03:01:27.130Z,40.27
2016-04-25T03:02:27.117Z,40.27
2016-04-25T03:03:27.089Z,40.17
2016-04-25T03:04:27.076Z,40.17
2016-04-25T03:05:27.047Z,40.27
2016-04-25T03:06:27.035Z,40.27
2016-04-25T03:07:27.021Z,40.37
2016-04-25T03:08:27.055Z,40.37
2016-04-25T03:09:26.979Z,40.47
2016-04-25T03:10:26.951Z,40.56
2016-04-25T03:11:26.939Z,40.27
2016-04-25T03:12:26.925Z,40.66
2016-04-25T03:13:27.912Z,41.04
2016-04-25T03:14:26.868Z,40.75
2016-04-25T03:15:26.855Z,40.27
2016-04-25T03:16:27.092Z,40.75
2016-04-25T03:17:26.814Z,41.04
2016-04-25T03:18:26.800Z,40.75
2016-04-25T03:19:26.773Z,41.13
2016-04-25T03:20:26.759Z,40.94
2016-04-25T03:21:26.730Z,40.84
2016-04-25T03:22:26.718Z,40.94
2016-04-25T03:23:26.705Z,40.84
2016-04-25T03:24:27.082Z,40.75
2016-04-25T03:25:26.663Z,40.84
2016-04-25T03:26:26.650Z,40.75
2016-04-25T03:27:26.607Z,40.66
2016-04-25T03:28:26.593Z,40.66
2016-04-25T03:29:26.580Z,40.75
2016-04-25T03:30:26.567Z,40.66
2016-04-25T03:31:26.538Z,40.66
2016-04-25T03:32:26.511Z,40.66
2016-04-25T03:33:26.512Z,40.75
2016-04-25T03:34:26.485Z,40.75
2016-04-25T03:35:26.456Z,40.94
2016-04-25T03:36:26.443Z,40.75
2016-04-25T03:37:26.415Z,40.84
2016-04-25T03:38:26.401Z,41.04
2016-04-25T03:39:26.389Z,40.75
2016-04-25T03:40:26.359Z,41.04
2016-04-25T03:41:26.331Z,40.94
2016-04-25T03:42:26.318Z,40.94
2016-04-25T03:43:26.150Z,41.04
2016-04-25T03:44:26.277Z,40.84
2016-04-25T03:45:26.248Z,41.23
2016-04-25T03:46:26.236Z,40.84
2016-04-25T03:47:26.239Z,41.23
2016-04-25T03:48:26.194Z,41.23
2016-04-25T03:49:26.181Z,41.23
2016-04-25T03:50:26.153Z,41.13
2016-04-25T03:51:26.139Z,41.13
2016-04-25T03:52:26.127Z,41.04
2016-04-25T03:53:26.114Z,41.13
2016-04-25T03:54:26.085Z,41.04
2016-04-25T03:55:26.057Z,41.52
2016-04-25T03:56:26.044Z,40.94
2016-04-25T03:57:26.016Z,41.13
2016-04-25T03:58:26.236Z,41.42
2016-04-25T03:59:25.988Z,41.42
2016-04-25T04:00:25.960Z,41.42
2016-04-25T04:01:25.933Z,41.42
2016-04-25T04:02:25.919Z,41.23
2016-04-25T04:03:25.890Z,41.13
2016-04-25T04:04:25.877Z,42.1
2016-04-25T04:05:25.865Z,40.99
2016-04-25T04:06:25.852Z,37.87
2016-04-25T04:07:25.823Z,34.92
2016-04-25T04:08:25.795Z,32.09
2016-04-25T04:09:25.782Z,29.24
2016-04-25T04:10:25.754Z,26.97
2016-04-25T04:11:25.756Z,24.97
2016-04-25T04:12:25.727Z,23.55
2016-04-25T04:13:25.714Z,23.08
2016-04-25T04:14:25.687Z,21.45
2016-04-25T04:15:25.673Z,21.47
2016-04-25T04:16:25.676Z,21.17
2016-04-25T04:17:25.647Z,21.27
2016-04-25T04:18:25.634Z,21.57
2016-04-25T04:19:25.637Z,21.66
2016-04-25T04:20:25.592Z,21.55
2016-04-25T04:21:25.581Z,21.94
2016-04-25T04:22:25.567Z,22.51
2016-04-25T04:23:25.554Z,22.79
2016-04-25T04:24:25.541Z,23.57
2016-04-25T04:25:25.528Z,24.33
2016-04-25T04:26:25.515Z,24.71
2016-04-25T04:27:25.503Z,24.98
2016-04-25T04:28:25.489Z,25.46
2016-04-25T04:29:25.461Z,26.23
2016-04-25T04:30:25.447Z,26.41
2016-04-25T04:31:25.435Z,26.4
2016-04-25T04:32:25.421Z,26.88
2016-04-25T04:33:25.394Z,26.97
2016-04-25T04:34:25.380Z,27.34
2016-04-25T04:35:25.368Z,27.92
2016-04-25T04:36:25.338Z,28.09
2016-04-25T04:37:25.326Z,28.29
2016-04-25T04:38:25.329Z,28.87
2016-04-25T04:39:25.300Z,28.85
2016-04-25T04:40:25.287Z,29.05
2016-04-25T04:41:25.259Z,29.34
2016-04-25T04:42:25.246Z,29.71
2016-04-25T04:43:26.139Z,29.61
2016-04-25T04:44:25.220Z,29.9
2016-04-25T04:45:25.206Z,30.19
2016-04-25T04:46:25.179Z,30.58
2016-04-25T04:47:25.165Z,30.96
2016-04-25T04:48:25.153Z,30.67
2016-04-25T04:49:25.139Z,30.77
2016-04-25T04:50:25.111Z,30.88
2016-04-25T04:51:25.098Z,30.4
2016-04-25T04:52:25.086Z,30.4
2016-04-25T04:53:25.072Z,29.91
2016-04-25T04:54:25.059Z,30.03
2016-04-25T04:55:25.030Z,30.32
2016-04-25T04:56:25.017Z,29.93
2016-04-25T04:57:25.005Z,29.08
2016-04-25T04:58:24.851Z,28.69
2016-04-25T04:59:24.979Z,29.08
2016-04-25T05:00:25.044Z,28.61
2016-04-25T05:01:24.938Z,28.41
2016-04-25T05:02:24.908Z,28.31
2016-04-25T05:03:24.896Z,28.03
2016-04-25T05:04:24.899Z,28.69
2016-04-25T05:05:24.871Z,28.78
2016-04-25T05:06:24.857Z,28.88
2016-04-25T05:07:24.829Z,28.78
2016-04-25T05:08:25.065Z,28.98
2016-04-25T05:09:24.802Z,28.87
2016-04-25T05:10:24.774Z,29.35
2016-04-25T05:11:24.762Z,29.45
2016-04-25T05:12:24.784Z,28.69
2016-04-25T05:13:24.658Z,28.59
2016-04-25T05:14:24.847Z,28.13
2016-04-25T05:15:24.861Z,27.66
2016-04-25T05:16:25.252Z,27.19
2016-04-25T05:17:24.901Z,26.89
2016-04-25T05:18:24.905Z,26.7
2016-04-25T05:19:24.907Z,26.62
2016-04-25T05:20:24.895Z,26.15
2016-04-25T05:21:24.897Z,25.95
2016-04-25T05:22:24.891Z,25.85
2016-04-25T05:23:24.885Z,26.15
2016-04-25T05:24:25.425Z,25.56
2016-04-25T05:25:24.871Z,25.27
2016-04-25T05:26:24.847Z,25.37
2016-04-25T05:27:24.837Z,25.47
2016-04-25T05:28:25.232Z,25.37
2016-04-25T05:29:24.814Z,24.87
2016-04-25T05:30:24.789Z,25.07
2016-04-25T05:31:24.778Z,24.97
2016-04-25T05:32:25.421Z,24.58
2016-04-25T05:33:24.753Z,24.96
2016-04-25T05:34:24.741Z,24.96
2016-04-25T05:35:24.729Z,25.63
2016-04-25T05:36:24.716Z,25.44
2016-04-25T05:37:24.689Z,25.54
2016-04-25T05:38:24.676Z,25.44
2016-04-25T05:39:24.648Z,25.54
2016-04-25T05:40:24.698Z,25.54
2016-04-25T05:41:24.623Z,25.35
2016-04-25T05:42:24.625Z,25.54
2016-04-25T05:43:24.660Z,25.82
2016-04-25T05:44:24.569Z,26.2
2016-04-25T05:45:24.555Z,26.4
2016-04-25T05:46:24.542Z,26.01
2016-04-25T05:47:24.530Z,26.2
2016-04-25T05:48:24.720Z,26.59
2016-04-25T05:49:24.504Z,26.51
2016-04-25T05:50:24.475Z,25.93
2016-04-25T05:51:24.462Z,25.93
2016-04-25T05:52:24.450Z,25.93
2016-04-25T05:53:24.436Z,25.83
2016-04-25T05:54:24.423Z,25.36
2016-04-25T05:55:24.411Z,25.16
2016-04-25T05:56:24.694Z,25.56
2016-04-25T05:57:24.369Z,25.18
2016-04-25T05:58:24.403Z,24.69
2016-04-25T05:59:24.343Z,24.9
2016-04-25T06:00:24.315Z,24.99
2016-04-25T06:01:24.317Z,24.22
2016-04-25T06:02:24.289Z,24.41
2016-04-25T06:03:24.416Z,24.61
2016-04-25T06:04:24.762Z,24.9
2016-04-25T06:05:24.251Z,24.88
2016-04-25T06:06:24.221Z,24.98
2016-04-25T06:07:24.209Z,24.88
2016-04-25T06:08:24.196Z,24.79
2016-04-25T06:09:24.182Z,24.69
2016-04-25T06:10:24.170Z,24.98
2016-04-25T06:11:24.344Z,24.88
2016-04-25T06:12:24.128Z,24.98
2016-04-25T06:13:24.881Z,24.79
2016-04-25T06:14:24.103Z,24.61
2016-04-25T06:15:24.089Z,24.41
2016-04-25T06:16:24.076Z,24.32
2016-04-25T06:17:24.064Z,24.41
2016-04-25T06:18:24.066Z,24.03
2016-04-25T06:19:24.319Z,24.32
2016-04-25T06:20:24.009Z,24.04
2016-04-25T06:21:23.996Z,24.33
2016-04-25T06:22:23.968Z,24.23
2016-04-25T06:23:23.956Z,24.13
2016-04-25T06:24:23.942Z,24.33
2016-04-25T06:25:23.945Z,23.94
2016-04-25T06:26:23.917Z,24.04
2016-04-25T06:27:24.357Z,24.13
2016-04-25T06:28:26.281Z,24.04
2016-04-25T06:29:24.675Z,24.23
2016-04-25T06:30:23.865Z,24.33
2016-04-25T06:31:23.852Z,24.13
2016-04-25T06:32:23.824Z,24.04
2016-04-25T06:33:23.998Z,24.04
2016-04-25T06:34:23.797Z,23.85
2016-04-25T06:35:24.379Z,23.65
2016-04-25T06:36:23.772Z,24.13
2016-04-25T06:37:23.743Z,23.85
2016-04-25T06:38:23.731Z,24.43
2016-04-25T06:39:23.717Z,24.33
2016-04-25T06:40:23.705Z,24.52
2016-04-25T06:41:23.707Z,24.99
2016-04-25T06:42:23.679Z,24.9
2016-04-25T06:43:25.056Z,24.9
2016-04-25T06:44:25.669Z,24.9
2016-04-25T06:45:23.640Z,24.8
2016-04-25T06:46:23.612Z,24.8
2016-04-25T06:47:23.598Z,24.99
2016-04-25T06:48:23.586Z,24.8
2016-04-25T06:49:23.556Z,24.99
2016-04-25T06:50:23.544Z,24.9
2016-04-25T06:51:23.640Z,24.91
2016-04-25T06:52:23.518Z,24.82
2016-04-25T06:53:23.505Z,24.9
2016-04-25T06:54:23.493Z,24.91
2016-04-25T06:55:23.479Z,24.82
2016-04-25T06:56:23.451Z,24.8
2016-04-25T06:57:23.437Z,24.8
2016-04-25T06:58:23.440Z,25.09
2016-04-25T06:59:23.522Z,25.38
2016-04-25T07:00:23.400Z,25.38
2016-04-25T07:01:23.370Z,25.47
2016-04-25T07:02:23.357Z,25.47
2016-04-25T07:03:23.344Z,25.19
2016-04-25T07:04:23.347Z,25.37
2016-04-25T07:05:23.319Z,25.47
2016-04-25T07:06:23.306Z,25.66
2016-04-25T07:07:25.871Z,25.29
2016-04-25T07:08:23.264Z,25.09
2016-04-25T07:09:23.267Z,24.8
2016-04-25T07:10:23.238Z,24.99
2016-04-25T07:11:23.225Z,24.9
2016-04-25T07:12:23.213Z,24.99
2016-04-25T07:13:23.043Z,25.09
2016-04-25T07:14:24.171Z,24.99
2016-04-25T07:15:23.174Z,25.48
2016-04-25T07:16:23.145Z,25.67
2016-04-25T07:17:23.148Z,25.19
2016-04-25T07:18:23.119Z,24.91
2016-04-25T07:19:23.107Z,22.97
2016-04-25T07:20:23.078Z,21.42
2016-04-25T07:21:23.065Z,21.42
2016-04-25T07:22:23.051Z,21.41
2016-04-25T07:23:23.054Z,21.41
2016-04-25T07:24:23.026Z,21.2
2016-04-25T07:25:23.013Z,21.88
2016-04-25T07:26:23.031Z,22.85
2016-04-25T07:27:22.987Z,23.14
2016-04-25T07:28:22.959Z,23.43
2016-04-25T07:29:23.758Z,23.35
2016-04-25T07:30:22.933Z,23.44
2016-04-25T07:31:22.920Z,23.26
2016-04-25T07:32:22.907Z,23.55
2016-04-25T07:33:22.878Z,23.36
2016-04-25T07:34:22.897Z,23.55
2016-04-25T07:35:22.853Z,23.65
2016-04-25T07:36:22.839Z,23.46
2016-04-25T07:37:22.827Z,23.46
2016-04-25T07:38:22.813Z,23.55
2016-04-25T07:39:22.801Z,24.23
2016-04-25T07:40:22.772Z,23.83
2016-04-25T07:41:22.775Z,24.03
2016-04-25T07:42:22.746Z,24.8
2016-04-25T07:43:23.280Z,24.79
2016-04-25T07:44:23.485Z,24.69
2016-04-25T07:45:22.708Z,25.37
2016-04-25T07:46:22.694Z,25.36
2016-04-25T07:47:22.666Z,25.46
2016-04-25T07:48:22.653Z,26.23
2016-04-25T07:49:22.640Z,26.03
2016-04-25T07:50:22.627Z,26.41
2016-04-25T07:51:22.614Z,26.41
2016-04-25T07:52:22.586Z,26.68
2016-04-25T07:53:22.588Z,27.17
2016-04-25T07:54:22.576Z,26.98
2016-04-25T07:55:22.563Z,27.17
2016-04-25T07:56:22.534Z,27.56
2016-04-25T07:57:22.520Z,27.56
2016-04-25T07:58:22.493Z,27.19
2016-04-25T07:59:22.651Z,27.57
2016-04-25T08:00:22.467Z,27.28
2016-04-25T08:01:22.454Z,27.28
2016-04-25T08:02:22.441Z,27.47
2016-04-25T08:03:22.428Z,26.99
2016-04-25T08:04:22.400Z,26.89
2016-04-25T08:05:22.386Z,27.37
2016-04-25T08:06:22.370Z,27.09
2016-04-25T08:07:22.358Z,27.19
2016-04-25T08:08:22.345Z,27.28
2016-04-25T08:09:22.316Z,27.37
2016-04-25T08:10:22.303Z,26.99
2016-04-25T08:11:22.306Z,26.81
2016-04-25T08:12:22.287Z,26.81
2016-04-25T08:13:23.729Z,26.62
2016-04-25T08:14:22.245Z,26.25
2016-04-25T08:15:22.248Z,26.34
2016-04-25T08:16:22.219Z,26.34
2016-04-25T08:17:22.205Z,26.25
2016-04-25T08:18:22.194Z,25.85
2016-04-25T08:19:22.164Z,25.47
2016-04-25T08:20:22.152Z,25.87
2016-04-25T08:21:22.122Z,25.95
2016-04-25T08:22:22.033Z,25.85
2016-04-25T08:23:22.098Z,25.85
2016-04-25T08:24:22.101Z,26.15
2016-04-25T08:25:22.087Z,26.25
2016-04-25T08:26:22.059Z,26.34
2016-04-25T08:27:22.047Z,26.05
2016-04-25T08:28:23.658Z,26.05
2016-04-25T08:29:22.286Z,25.85
2016-04-25T08:30:21.992Z,25.56
2016-04-25T08:31:21.979Z,25.29
2016-04-25T08:32:21.966Z,25.58
2016-04-25T08:33:21.953Z,25.58
2016-04-25T08:34:21.940Z,25.19
2016-04-25T08:35:21.928Z,25.66
2016-04-25T08:36:21.899Z,25.47
2016-04-25T08:37:21.886Z,25.66
2016-04-25T08:38:21.872Z,25.48
2016-04-25T08:39:21.844Z,25.38
2016-04-25T08:40:21.847Z,24.99
2016-04-25T08:41:21.823Z,24.91
2016-04-25T08:42:21.810Z,24.91
2016-04-25T08:43:21.641Z,24.52
2016-04-25T08:44:21.675Z,23.94
2016-04-25T08:45:21.772Z,23.86
2016-04-25T08:46:21.743Z,24.15
2016-04-25T08:47:21.730Z,23.95
2016-04-25T08:48:21.717Z,24.23
2016-04-25T08:49:21.704Z,24.91
2016-04-25T08:50:21.692Z,24.91
2016-04-25T08:51:21.678Z,24.82
2016-04-25T08:52:21.650Z,24.8
2016-04-25T08:53:21.637Z,24.8
2016-04-25T08:54:21.623Z,24.72
2016-04-25T08:55:21.626Z,24.99
2016-04-25T08:56:21.598Z,25.29
2016-04-25T08:57:21.585Z,25.01
2016-04-25T08:58:21.556Z,24.91
2016-04-25T08:59:21.637Z,24.52
2016-04-25T09:00:21.547Z,24.72
2016-04-25T09:01:21.533Z,24.33
2016-04-25T09:02:21.505Z,24.33
2016-04-25T09:03:21.491Z,24.62
2016-04-25T09:04:21.479Z,24.91
2016-04-25T09:05:21.466Z,24.72
2016-04-25T09:06:21.438Z,24.62
2016-04-25T09:07:21.643Z,24.13
2016-04-25T09:08:21.427Z,24.05
2016-04-25T09:09:21.414Z,24.05
2016-04-25T09:10:21.386Z,24.05
2016-04-25T09:11:21.373Z,23.86
2016-04-25T09:12:21.360Z,24.05
2016-04-25T09:13:21.190Z,24.24
2016-04-25T09:14:21.506Z,24.15
2016-04-25T09:15:21.649Z,24.05
2016-04-25T09:16:21.296Z,23.57
2016-04-25T09:17:21.268Z,23.47
2016-04-25T09:18:21.271Z,23.68
2016-04-25T09:19:21.242Z,23.38
2016-04-25T09:20:21.229Z,23.38
2016-04-25T09:21:21.216Z,23.48
2016-04-25T09:22:21.203Z,23.76
2016-04-25T09:23:21.691Z,23.86
2016-04-25T09:24:21.177Z,24.24
2016-04-25T09:25:21.165Z,23.94
2016-04-25T09:26:22.213Z,23.95
2016-04-25T09:27:21.123Z,24.05
2016-04-25T09:28:21.126Z,24.23
2016-04-25T09:29:21.816Z,24.13
2016-04-25T09:30:21.084Z,24.04
2016-04-25T09:31:21.665Z,24.32
2016-04-25T09:32:21.042Z,23.93
2016-04-25T09:33:21.046Z,24.11
2016-04-25T09:34:21.017Z,23.92
2016-04-25T09:35:21.019Z,24.11
2016-04-25T09:36:20.990Z,24.3
2016-04-25T09:37:20.978Z,24.1
2016-04-25T09:38:20.965Z,24.19
2016-04-25T09:39:20.936Z,23.71
2016-04-25T09:40:20.923Z,24.1
2016-04-25T09:41:20.911Z,24.19
2016-04-25T09:42:20.928Z,24.4
2016-04-25T09:43:20.884Z,24.21
2016-04-25T09:44:22.731Z,24.3
2016-04-25T09:45:20.843Z,24.6
2016-04-25T09:46:20.830Z,24.6
2016-04-25T09:47:20.974Z,24.21
2016-04-25T09:48:20.805Z,24.4
2016-04-25T09:49:20.791Z,24.12
2016-04-25T09:50:20.778Z,24.12
2016-04-25T09:51:20.750Z,24.12
2016-04-25T09:52:20.737Z,24.03
2016-04-25T09:53:20.724Z,24.03
2016-04-25T09:54:20.710Z,24.12
2016-04-25T09:55:20.995Z,24.12
2016-04-25T09:56:20.685Z,24.13
2016-04-25T09:57:20.657Z,24.13
2016-04-25T09:58:20.643Z,23.55
2016-04-25T09:59:21.365Z,23.36
2016-04-25T10:00:20.618Z,23.65
2016-04-25T10:01:20.605Z,23.46
2016-04-25T10:02:20.607Z,23.36
2016-04-25T10:03:20.970Z,23.46
2016-04-25T10:04:20.565Z,23.37
2016-04-25T10:05:20.553Z,23.37
2016-04-25T10:06:20.525Z,23.36
2016-04-25T10:07:20.512Z,23.46
2016-04-25T10:08:20.498Z,23.55
2016-04-25T10:09:20.486Z,23.55
2016-04-25T10:10:20.551Z,23.46
2016-04-25T10:11:20.445Z,23.36
2016-04-25T10:12:20.431Z,23.46
2016-04-25T10:13:20.418Z,23.36
2016-04-25T10:14:20.250Z,23.26
2016-04-25T10:15:20.393Z,23.36
2016-04-25T10:16:20.364Z,23.46
2016-04-25T10:17:20.351Z,23.36
2016-04-25T10:18:20.588Z,23.36
2016-04-25T10:19:20.341Z,23.46
2016-04-25T10:20:20.328Z,22.89
2016-04-25T10:21:20.300Z,23.18
2016-04-25T10:22:20.286Z,22.79
2016-04-25T10:23:20.257Z,22.79
2016-04-25T10:24:20.244Z,23.08
2016-04-25T10:25:20.232Z,23.08
2016-04-25T10:26:20.625Z,22.69
2016-04-25T10:27:20.222Z,22.8
2016-04-25T10:28:20.209Z,22.22
2016-04-25T10:29:20.790Z,22.12
2016-04-25T10:30:20.183Z,22.61
2016-04-25T10:31:20.161Z,22.51
2016-04-25T10:32:20.147Z,22.22
2016-04-25T10:33:20.134Z,22.12
2016-04-25T10:34:21.542Z,22.71
2016-04-25T10:35:28.590Z,22.8
2016-04-25T10:36:20.074Z,22.6
2016-04-25T10:37:20.045Z,22.69
2016-04-25T10:38:20.048Z,22.2
2016-04-25T10:39:20.020Z,22.3
2016-04-25T10:40:20.007Z,22.69
2016-04-25T10:41:19.995Z,22.4
2016-04-25T10:42:20.637Z,22.69
2016-04-25T10:43:19.967Z,22.88
2016-04-25T10:44:20.314Z,22.79
2016-04-25T10:45:19.926Z,22.6
2016-04-25T10:46:19.914Z,22.68
2016-04-25T10:47:19.900Z,22.88
2016-04-25T10:48:19.888Z,22.68
2016-04-25T10:49:19.875Z,22.97
2016-04-25T10:50:19.862Z,22.78
2016-04-25T10:51:19.833Z,23.44
2016-04-25T10:52:19.820Z,23.64
2016-04-25T10:53:19.807Z,23.35
2016-04-25T10:54:19.794Z,23.64
2016-04-25T10:55:19.781Z,23.55
2016-04-25T10:56:19.769Z,23.55
2016-04-25T10:57:19.740Z,23.55
2016-04-25T10:58:19.727Z,23.46
2016-04-25T10:59:19.620Z,23.36
2016-04-25T11:00:19.717Z,23.46
2016-04-25T11:01:19.704Z,23.36
2016-04-25T11:02:19.691Z,22.78
2016-04-25T11:03:19.646Z,22.97
2016-04-25T11:04:19.634Z,23.07
2016-04-25T11:05:19.621Z,23.26
2016-04-25T11:06:19.920Z,23.46
2016-04-25T11:07:19.626Z,23.46
2016-04-25T11:08:19.582Z,23.65
2016-04-25T11:09:19.570Z,23.36
2016-04-25T11:10:19.556Z,23.46
2016-04-25T11:11:19.528Z,23.36
2016-04-25T11:12:19.515Z,23.37
2016-04-25T11:13:19.517Z,23.46
2016-04-25T11:14:20.566Z,23.76
2016-04-25T11:15:19.476Z,23.36
2016-04-25T11:16:19.447Z,23.46
2016-04-25T11:17:19.434Z,23.46
2016-04-25T11:18:19.437Z,23.65
2016-04-25T11:19:19.425Z,23.36
2016-04-25T11:20:19.411Z,23.36
2016-04-25T11:21:19.383Z,23.36
2016-04-25T11:22:19.355Z,23.65
2016-04-25T11:23:19.357Z,23.36
2016-04-25T11:24:19.344Z,23.74
2016-04-25T11:25:19.330Z,23.54
2016-04-25T11:26:19.302Z,23.35
2016-04-25T11:27:19.289Z,23.44
2016-04-25T11:28:19.277Z,23.74
2016-04-25T11:29:19.264Z,24.32
2016-04-25T11:30:19.251Z,24.03
2016-04-25T11:31:19.629Z,24.03
2016-04-25T11:32:19.225Z,24.22
2016-04-25T11:33:19.212Z,24.32
2016-04-25T11:34:19.183Z,24.03
2016-04-25T11:35:19.185Z,23.83
2016-04-25T11:36:19.173Z,23.85
2016-04-25T11:37:19.129Z,23.36
2016-04-25T11:38:19.115Z,23.36
2016-04-25T11:39:19.103Z,22.99
2016-04-25T11:40:24.840Z,22.89
2016-04-25T11:41:19.076Z,22.6
2016-04-25T11:42:19.048Z,22.79
2016-04-25T11:43:19.036Z,22.69
2016-04-25T11:44:19.631Z,22.99
2016-04-25T11:45:19.009Z,22.89
2016-04-25T11:46:19.012Z,22.97
2016-04-25T11:47:18.848Z,22.97
2016-04-25T11:48:19.319Z,23.36
2016-04-25T11:49:18.952Z,23.46
2016-04-25T11:50:18.939Z,22.68
2016-04-25T11:51:18.927Z,22.89
2016-04-25T11:52:18.913Z,22.89
2016-04-25T11:53:18.905Z,22.69
2016-04-25T11:54:18.876Z,22.89
2016-04-25T11:55:18.863Z,22.97
2016-04-25T11:56:18.851Z,22.79
2016-04-25T11:57:18.838Z,23.07
2016-04-25T11:58:18.826Z,22.89
2016-04-25T11:59:18.640Z,22.89
2016-04-25T12:00:18.784Z,22.79
2016-04-25T12:01:18.770Z,22.69
2016-04-25T12:02:18.757Z,22.99
2016-04-25T12:03:18.745Z,22.89
2016-04-25T12:04:18.748Z,22.89
2016-04-25T12:05:18.719Z,22.69
2016-04-25T12:06:18.690Z,22.69
2016-04-25T12:07:18.724Z,22.97
2016-04-25T12:08:18.664Z,22.89
2016-04-25T12:09:18.667Z,22.97
2016-04-25T12:10:18.639Z,23.36
2016-04-25T12:11:18.610Z,23.36
2016-04-25T12:12:18.613Z,23.36
2016-04-25T12:13:18.584Z,23.44
2016-04-25T12:14:18.461Z,23.44
2016-04-25T12:15:18.558Z,23.44
2016-04-25T12:16:18.544Z,23.35
2016-04-25T12:17:18.532Z,23.54
2016-04-25T12:18:18.535Z,23.35
2016-04-25T12:19:18.366Z,22.96
2016-04-25T12:20:18.478Z,20.26
2016-04-25T12:21:18.465Z,17.82
2016-04-25T12:22:18.468Z,17.52
2016-04-25T12:23:18.439Z,17.4
2016-04-25T12:24:18.426Z,17.68
2016-04-25T12:25:18.398Z,19.12
2016-04-25T12:26:18.401Z,19.71
2016-04-25T12:27:18.387Z,19.15
2016-04-25T12:28:18.343Z,18.4
2016-04-25T12:29:18.846Z,18.03
2016-04-25T12:30:18.333Z,17.66
2016-04-25T12:31:18.304Z,17.29
2016-04-25T12:32:18.292Z,17.48
2016-04-25T12:33:18.279Z,17.58
2016-04-25T12:34:18.265Z,17.49
2016-04-25T12:35:18.253Z,17.58
2016-04-25T12:36:18.239Z,17.58
2016-04-25T12:37:18.226Z,17.79
2016-04-25T12:38:18.198Z,17.4
2016-04-25T12:39:18.200Z,17.5
2016-04-25T12:40:18.172Z,17.79
2016-04-25T12:41:18.159Z,17.79
2016-04-25T12:42:18.147Z,17.5
2016-04-25T12:43:18.149Z,17.78
2016-04-25T12:44:19.620Z,17.68
2016-04-25T12:45:18.155Z,17.49
2016-04-25T12:46:18.094Z,18.17
2016-04-25T12:47:18.083Z,18.07
2016-04-25T12:48:18.069Z,18.45
2016-04-25T12:49:18.118Z,18.74
2016-04-25T12:50:18.044Z,18.45
2016-04-25T12:51:18.030Z,18.84
2016-04-25T12:52:18.001Z,18.64
2016-04-25T12:53:17.988Z,18.73
2016-04-25T12:54:17.976Z,19.32
2016-04-25T12:55:17.978Z,19.22
2016-04-25T12:56:17.971Z,19.02